sensor_id;sensor_type;location;lat;lon;timestamp;pressure;altitude;pressure_sealevel;temperature;humidity
3968;BME280;9221;42.646;23.380;2023-04-04T00:00:09;93053.84;;;8.64;100.00
3968;BME280;9221;42.646;23.380;2023-04-04T00:02:35;93078.91;;;8.90;100.00
3968;BME280;9221;42.646;23.380;2023-04-04T00:05:01;93041.47;;;8.50;100.00
3968;BME280;9221;42.646;23.380;2023-04-04T00:07:27;93043.53;;;8.31;100.00
3968;BME280;9221;42.646;23.380;2023-04-04T00:09:52;93107.78;;;8.75;100.00
3968;BME280;9221;42.646;23.380;2023-04-04T00:12:17;93050.81;;;8.52;100.00
3968;BME280;9221;42.646;23.380;2023-04-04T00:14:43;93114.16;;;8.80;100.00
3968;BME280;9221;42.646;23.380;2023-04-04T00:17:08;93048.53;;;8.49;100.00
3968;BME280;9221;42.646;23.380;2023-04-04T00:19:34;93105.22;;;9.05;100.00
3968;BME280;9221;42.646;23.380;2023-04-04T00:21:59;93105.47;;;8.95;100.00
3968;BME280;9221;42.646;23.380;2023-04-04T00:24:25;93074.03;;;8.32;100.00
3968;BME280;9221;42.646;23.380;2023-04-04T00:26:50;93103.06;;;9.08;100.00
3968;BME280;9221;42.646;23.380;2023-04-04T00:29:16;92958.81;;;8.14;100.00
3968;BME280;9221;42.646;23.380;2023-04-04T00:31:42;93068.13;;;8.85;100.00
3968;BME280;9221;42.646;23.380;2023-04-04T00:34:07;93115.69;;;8.90;100.00
3968;BME280;9221;42.646;23.380;2023-04-04T00:36:33;93033.16;;;8.61;100.00
3968;BME280;9221;42.646;23.380;2023-04-04T00:38:58;93095.19;;;9.08;100.00
3968;BME280;9221;42.646;23.380;2023-04-04T00:41:24;93097.56;;;9.18;100.00
3968;BME280;9221;42.646;23.380;2023-04-04T00:43:49;93075.66;;;8.88;100.00
3968;BME280;9221;42.646;23.380;2023-04-04T00:46:15;93113.47;;;9.02;100.00
3968;BME280;9221;42.646;23.380;2023-04-04T00:48:43;93016.88;;;8.66;100.00
3968;BME280;9221;42.646;23.380;2023-04-04T00:51:08;93025.34;;;8.53;100.00
3968;BME280;9221;42.646;23.380;2023-04-04T00:53:34;93021.59;;;8.47;100.00
3968;BME280;9221;42.646;23.380;2023-04-04T00:56:00;93061.41;;;8.82;100.00
3968;BME280;9221;42.646;23.380;2023-04-04T00:58:26;93073.72;;;8.81;100.00
3968;BME280;9221;42.646;23.380;2023-04-04T01:00:51;93052.50;;;8.68;100.00
3968;BME280;9221;42.646;23.380;2023-04-04T01:03:17;93077.75;;;8.69;100.00
3968;BME280;9221;42.646;23.380;2023-04-04T01:05:43;93102.41;;;8.68;100.00
3968;BME280;9221;42.646;23.380;2023-04-04T01:08:09;93081.41;;;8.68;100.00
3968;BME280;9221;42.646;23.380;2023-04-04T01:10:35;93078.00;;;8.59;100.00
3968;BME280;9221;42.646;23.380;2023-04-04T01:13:01;93102.13;;;8.63;100.00
3968;BME280;9221;42.646;23.380;2023-04-04T01:15:26;93085.31;;;8.72;100.00
3968;BME280;9221;42.646;23.380;2023-04-04T01:17:55;93091.31;;;8.58;100.00
3968;BME280;9221;42.646;23.380;2023-04-04T01:20:25;93035.38;;;8.26;100.00
3968;BME280;9221;42.646;23.380;2023-04-04T01:22:52;93129.38;;;8.62;100.00
3968;BME280;9221;42.646;23.380;2023-04-04T01:25:29;93098.34;;;8.66;100.00
3968;BME280;9221;42.646;23.380;2023-04-04T01:27:56;93089.34;;;8.60;100.00
3968;BME280;9221;42.646;23.380;2023-04-04T01:30:24;93027.44;;;8.11;100.00
3968;BME280;9221;42.646;23.380;2023-04-04T01:33:00;93094.25;;;8.63;100.00
3968;BME280;9221;42.646;23.380;2023-04-04T01:36:04;93096.69;;;8.64;100.00
3968;BME280;9221;42.646;23.380;2023-04-04T01:38:52;93087.88;;;8.57;100.00
3968;BME280;9221;42.646;23.380;2023-04-04T01:41:19;93090.09;;;8.69;100.00
3968;BME280;9221;42.646;23.380;2023-04-04T01:43:45;93044.75;;;8.52;100.00
3968;BME280;9221;42.646;23.380;2023-04-04T01:46:11;93021.03;;;8.60;100.00
3968;BME280;9221;42.646;23.380;2023-04-04T01:48:36;93083.09;;;8.99;100.00
3968;BME280;9221;42.646;23.380;2023-04-04T01:51:02;93098.31;;;8.89;100.00
3968;BME280;9221;42.646;23.380;2023-04-04T01:53:27;93015.13;;;8.58;100.00
3968;BME280;9221;42.646;23.380;2023-04-04T01:55:53;93047.31;;;8.60;100.00
3968;BME280;9221;42.646;23.380;2023-04-04T01:58:19;93051.19;;;8.87;100.00
3968;BME280;9221;42.646;23.380;2023-04-04T02:00:44;93043.09;;;8.51;100.00
3968;BME280;9221;42.646;23.380;2023-04-04T02:03:10;93059.91;;;8.64;100.00
3968;BME280;9221;42.646;23.380;2023-04-04T02:05:35;92982.84;;;7.79;100.00
3968;BME280;9221;42.646;23.380;2023-04-04T02:08:00;93000.13;;;7.97;100.00
3968;BME280;9221;42.646;23.380;2023-04-04T02:10:27;93007.69;;;7.92;100.00
3968;BME280;9221;42.646;23.380;2023-04-04T02:12:54;92999.34;;;7.88;100.00
3968;BME280;9221;42.646;23.380;2023-04-04T02:15:19;93015.22;;;7.95;100.00
3968;BME280;9221;42.646;23.380;2023-04-04T02:17:48;93091.09;;;8.05;100.00
3968;BME280;9221;42.646;23.380;2023-04-04T02:20:14;93043.72;;;7.98;100.00
3968;BME280;9221;42.646;23.380;2023-04-04T02:22:39;92963.41;;;7.34;100.00
3968;BME280;9221;42.646;23.380;2023-04-04T02:25:05;93004.53;;;7.65;100.00
3968;BME280;9221;42.646;23.380;2023-04-04T02:27:31;92891.97;;;6.92;100.00
3968;BME280;9221;42.646;23.380;2023-04-04T02:29:56;93045.72;;;7.96;100.00
3968;BME280;9221;42.646;23.380;2023-04-04T02:32:22;92914.69;;;7.08;100.00
3968;BME280;9221;42.646;23.380;2023-04-04T02:34:47;93014.00;;;7.74;100.00
3968;BME280;9221;42.646;23.380;2023-04-04T02:37:13;92995.06;;;7.64;100.00
3968;BME280;9221;42.646;23.380;2023-04-04T02:39:38;93056.81;;;8.06;100.00
3968;BME280;9221;42.646;23.380;2023-04-04T02:42:04;92892.75;;;7.09;100.00
3968;BME280;9221;42.646;23.380;2023-04-04T02:44:29;93038.44;;;8.06;100.00
3968;BME280;9221;42.646;23.380;2023-04-04T02:46:54;93045.50;;;8.06;100.00
3968;BME280;9221;42.646;23.380;2023-04-04T02:49:20;93053.13;;;8.47;100.00
3968;BME280;9221;42.646;23.380;2023-04-04T02:51:45;93041.06;;;8.29;99.91
3968;BME280;9221;42.646;23.380;2023-04-04T02:54:11;93115.03;;;8.41;100.00
3968;BME280;9221;42.646;23.380;2023-04-04T02:56:37;93000.56;;;8.01;100.00
3968;BME280;9221;42.646;23.380;2023-04-04T02:59:03;92978.50;;;7.87;100.00
3968;BME280;9221;42.646;23.380;2023-04-04T03:01:28;93048.09;;;8.37;100.00
3968;BME280;9221;42.646;23.380;2023-04-04T03:03:55;93055.06;;;8.53;99.27
3968;BME280;9221;42.646;23.380;2023-04-04T03:06:20;93049.00;;;8.44;98.96
3968;BME280;9221;42.646;23.380;2023-04-04T03:08:46;92891.59;;;7.35;97.95
3968;BME280;9221;42.646;23.380;2023-04-04T03:11:15;93070.22;;;8.43;97.83
3968;BME280;9221;42.646;23.380;2023-04-04T03:13:40;93046.19;;;8.31;97.43
3968;BME280;9221;42.646;23.380;2023-04-04T03:16:06;93084.78;;;8.54;97.07
3968;BME280;9221;42.646;23.380;2023-04-04T03:18:31;93049.50;;;8.71;96.58
3968;BME280;9221;42.646;23.380;2023-04-04T03:20:58;92986.22;;;8.35;96.89
3968;BME280;9221;42.646;23.380;2023-04-04T03:23:24;93035.50;;;8.56;97.93
3968;BME280;9221;42.646;23.380;2023-04-04T03:25:49;93018.31;;;8.22;98.66
3968;BME280;9221;42.646;23.380;2023-04-04T03:28:15;92939.09;;;7.95;98.67
3968;BME280;9221;42.646;23.380;2023-04-04T03:30:41;93037.00;;;8.73;98.31
3968;BME280;9221;42.646;23.380;2023-04-04T03:33:06;93068.25;;;9.06;98.22
3968;BME280;9221;42.646;23.380;2023-04-04T03:35:36;93062.66;;;9.24;97.53
3968;BME280;9221;42.646;23.380;2023-04-04T03:38:01;93062.28;;;9.27;97.40
3968;BME280;9221;42.646;23.380;2023-04-04T03:40:28;93056.31;;;9.48;97.00
3968;BME280;9221;42.646;23.380;2023-04-04T03:42:53;93063.66;;;9.53;96.92
3968;BME280;9221;42.646;23.380;2023-04-04T03:45:18;92997.53;;;9.11;96.36
3968;BME280;9221;42.646;23.380;2023-04-04T03:47:44;93059.94;;;9.47;97.06
3968;BME280;9221;42.646;23.380;2023-04-04T03:50:09;93011.91;;;8.71;98.69
3968;BME280;9221;42.646;23.380;2023-04-04T03:52:38;93068.97;;;9.00;99.20
3968;BME280;9221;42.646;23.380;2023-04-04T03:55:07;93010.16;;;8.63;99.62
3968;BME280;9221;42.646;23.380;2023-04-04T03:57:32;93050.34;;;8.87;100.00
3968;BME280;9221;42.646;23.380;2023-04-04T03:59:58;93059.72;;;9.04;100.00
3968;BME280;9221;42.646;23.380;2023-04-04T04:02:23;93055.28;;;9.20;100.00
3968;BME280;9221;42.646;23.380;2023-04-04T04:04:49;92995.72;;;8.97;100.00
3968;BME280;9221;42.646;23.380;2023-04-04T04:07:14;93065.19;;;9.18;99.57
3968;BME280;9221;42.646;23.380;2023-04-04T04:09:40;93097.66;;;9.25;99.85
3968;BME280;9221;42.646;23.380;2023-04-04T04:12:05;93089.41;;;8.90;99.78
3968;BME280;9221;42.646;23.380;2023-04-04T04:14:31;93098.13;;;9.28;100.00
3968;BME280;9221;42.646;23.380;2023-04-04T04:16:56;93058.31;;;9.46;99.27
3968;BME280;9221;42.646;23.380;2023-04-04T04:19:22;93067.19;;;9.45;99.31
3968;BME280;9221;42.646;23.380;2023-04-04T04:21:47;93069.72;;;9.54;99.33
3968;BME280;9221;42.646;23.380;2023-04-04T04:24:12;93082.81;;;9.62;98.95
3968;BME280;9221;42.646;23.380;2023-04-04T04:26:38;93083.44;;;9.34;99.03
3968;BME280;9221;42.646;23.380;2023-04-04T04:29:03;93039.75;;;8.95;99.81
3968;BME280;9221;42.646;23.380;2023-04-04T04:31:29;93003.59;;;8.82;100.00
3968;BME280;9221;42.646;23.380;2023-04-04T04:33:54;93111.47;;;9.27;99.79
3968;BME280;9221;42.646;23.380;2023-04-04T04:36:19;93023.06;;;8.88;100.00
3968;BME280;9221;42.646;23.380;2023-04-04T04:38:45;93078.16;;;9.19;100.00
3968;BME280;9221;42.646;23.380;2023-04-04T04:41:10;93032.53;;;8.97;100.00
3968;BME280;9221;42.646;23.380;2023-04-04T04:43:36;93033.31;;;8.83;100.00
3968;BME280;9221;42.646;23.380;2023-04-04T04:46:01;93130.28;;;9.15;100.00
3968;BME280;9221;42.646;23.380;2023-04-04T04:48:27;93018.81;;;8.87;100.00
3968;BME280;9221;42.646;23.380;2023-04-04T04:50:52;93063.56;;;9.17;100.00
3968;BME280;9221;42.646;23.380;2023-04-04T04:53:17;93031.78;;;9.03;99.47
3968;BME280;9221;42.646;23.380;2023-04-04T04:55:44;93105.94;;;9.37;99.44
3968;BME280;9221;42.646;23.380;2023-04-04T04:58:11;93189.69;;;9.48;99.23
3968;BME280;9221;42.646;23.380;2023-04-04T05:00:37;93108.59;;;9.67;98.83
3968;BME280;9221;42.646;23.380;2023-04-04T05:03:05;93085.00;;;9.73;98.23
3968;BME280;9221;42.646;23.380;2023-04-04T05:05:34;93107.47;;;9.91;97.75
3968;BME280;9221;42.646;23.380;2023-04-04T05:08:01;93115.28;;;9.99;97.34
3968;BME280;9221;42.646;23.380;2023-04-04T05:10:27;92965.72;;;9.06;97.09
3968;BME280;9221;42.646;23.380;2023-04-04T05:12:52;93098.06;;;9.81;96.80
3968;BME280;9221;42.646;23.380;2023-04-04T05:15:17;93117.91;;;9.99;96.52
3968;BME280;9221;42.646;23.380;2023-04-04T05:17:43;93129.19;;;9.93;96.01
3968;BME280;9221;42.646;23.380;2023-04-04T05:20:09;93095.06;;;9.85;96.10
3968;BME280;9221;42.646;23.380;2023-04-04T05:22:35;93131.25;;;10.12;95.84
3968;BME280;9221;42.646;23.380;2023-04-04T05:25:00;93064.03;;;9.65;95.95
3968;BME280;9221;42.646;23.380;2023-04-04T05:27:26;93101.91;;;10.15;95.71
3968;BME280;9221;42.646;23.380;2023-04-04T05:29:51;93045.13;;;9.76;95.78
3968;BME280;9221;42.646;23.380;2023-04-04T05:32:17;93128.88;;;10.18;95.82
3968;BME280;9221;42.646;23.380;2023-04-04T05:34:42;93088.81;;;10.22;95.05
3968;BME280;9221;42.646;23.380;2023-04-04T05:37:08;93134.94;;;10.48;95.80
3968;BME280;9221;42.646;23.380;2023-04-04T05:39:33;93106.00;;;10.03;96.20
3968;BME280;9221;42.646;23.380;2023-04-04T05:41:59;93125.59;;;10.45;96.50
3968;BME280;9221;42.646;23.380;2023-04-04T05:44:24;93107.97;;;10.31;96.24
3968;BME280;9221;42.646;23.380;2023-04-04T05:46:50;93135.00;;;10.55;96.03
3968;BME280;9221;42.646;23.380;2023-04-04T05:49:15;93161.53;;;10.68;95.90
3968;BME280;9221;42.646;23.380;2023-04-04T05:51:41;93132.41;;;10.76;95.44
3968;BME280;9221;42.646;23.380;2023-04-04T05:54:06;93161.41;;;10.76;95.35
3968;BME280;9221;42.646;23.380;2023-04-04T05:56:33;93100.13;;;10.53;94.41
3968;BME280;9221;42.646;23.380;2023-04-04T05:58:58;93142.19;;;10.82;94.37
3968;BME280;9221;42.646;23.380;2023-04-04T06:01:24;93167.75;;;10.82;94.21
3968;BME280;9221;42.646;23.380;2023-04-04T06:03:50;93128.66;;;10.86;94.12
3968;BME280;9221;42.646;23.380;2023-04-04T06:06:15;93077.28;;;10.38;94.37
3968;BME280;9221;42.646;23.380;2023-04-04T06:08:41;93139.94;;;11.01;94.07
3968;BME280;9221;42.646;23.380;2023-04-04T06:11:06;93141.59;;;11.02;93.77
3968;BME280;9221;42.646;23.380;2023-04-04T06:13:32;93179.06;;;10.97;93.88
3968;BME280;9221;42.646;23.380;2023-04-04T06:15:57;93188.53;;;10.92;93.75
3968;BME280;9221;42.646;23.380;2023-04-04T06:18:22;93148.78;;;10.93;93.76
3968;BME280;9221;42.646;23.380;2023-04-04T06:20:48;93137.44;;;10.93;93.29
3968;BME280;9221;42.646;23.380;2023-04-04T06:23:13;93192.69;;;11.01;93.09
3968;BME280;9221;42.646;23.380;2023-04-04T06:25:39;93133.81;;;10.94;92.72
3968;BME280;9221;42.646;23.380;2023-04-04T06:28:04;93158.66;;;11.06;92.44
3968;BME280;9221;42.646;23.380;2023-04-04T06:30:29;93210.66;;;11.12;92.26
3968;BME280;9221;42.646;23.380;2023-04-04T06:32:55;93195.59;;;11.06;92.22
3968;BME280;9221;42.646;23.380;2023-04-04T06:35:21;93166.59;;;11.06;92.17
3968;BME280;9221;42.646;23.380;2023-04-04T06:37:47;93125.00;;;10.65;91.83
3968;BME280;9221;42.646;23.380;2023-04-04T06:40:13;93152.63;;;10.69;91.95
3968;BME280;9221;42.646;23.380;2023-04-04T06:42:39;93183.19;;;10.85;92.61
3968;BME280;9221;42.646;23.380;2023-04-04T06:45:11;93188.84;;;10.82;92.86
3968;BME280;9221;42.646;23.380;2023-04-04T06:47:36;93189.31;;;10.86;92.59
3968;BME280;9221;42.646;23.380;2023-04-04T06:50:02;93120.69;;;10.42;92.43
3968;BME280;9221;42.646;23.380;2023-04-04T06:52:28;93099.56;;;9.91;92.59
3968;BME280;9221;42.646;23.380;2023-04-04T06:54:54;93199.69;;;10.72;92.77
3968;BME280;9221;42.646;23.380;2023-04-04T06:57:19;93185.94;;;10.10;90.66
3968;BME280;9221;42.646;23.380;2023-04-04T06:59:45;93222.88;;;9.72;88.42
3968;BME280;9221;42.646;23.380;2023-04-04T07:02:10;93150.53;;;8.92;87.68
3968;BME280;9221;42.646;23.380;2023-04-04T07:04:35;93231.88;;;9.17;87.73
3968;BME280;9221;42.646;23.380;2023-04-04T07:07:02;93228.88;;;8.65;87.63
3968;BME280;9221;42.646;23.380;2023-04-04T07:09:27;93278.03;;;8.56;87.28
3968;BME280;9221;42.646;23.380;2023-04-04T07:11:53;93199.94;;;7.94;86.89
3968;BME280;9221;42.646;23.380;2023-04-04T07:14:18;93266.31;;;8.19;87.18
3968;BME280;9221;42.646;23.380;2023-04-04T07:16:44;93282.16;;;7.70;86.58
3968;BME280;9221;42.646;23.380;2023-04-04T07:19:10;93285.25;;;7.90;87.13
3968;BME280;9221;42.646;23.380;2023-04-04T07:21:35;93286.56;;;7.86;87.29
3968;BME280;9221;42.646;23.380;2023-04-04T07:24:00;93386.63;;;7.66;87.57
3968;BME280;9221;42.646;23.380;2023-04-04T07:26:26;93314.78;;;7.67;87.77
3968;BME280;9221;42.646;23.380;2023-04-04T07:28:52;93228.41;;;7.33;87.77
3968;BME280;9221;42.646;23.380;2023-04-04T07:31:17;93291.50;;;7.48;86.96
3968;BME280;9221;42.646;23.380;2023-04-04T07:33:43;93264.06;;;6.92;86.47
3968;BME280;9221;42.646;23.380;2023-04-04T07:36:08;93295.09;;;7.22;86.61
3968;BME280;9221;42.646;23.380;2023-04-04T07:38:34;93246.19;;;6.71;86.70
3968;BME280;9221;42.646;23.380;2023-04-04T07:40:59;93245.47;;;6.44;86.06
3968;BME280;9221;42.646;23.380;2023-04-04T07:43:25;93287.94;;;6.65;86.73
3968;BME280;9221;42.646;23.380;2023-04-04T07:45:50;93316.56;;;6.66;86.98
3968;BME280;9221;42.646;23.380;2023-04-04T07:48:16;93313.78;;;6.68;86.66
3968;BME280;9221;42.646;23.380;2023-04-04T07:50:42;93250.63;;;6.28;87.34
3968;BME280;9221;42.646;23.380;2023-04-04T07:53:07;93322.47;;;6.68;86.87
3968;BME280;9221;42.646;23.380;2023-04-04T07:55:33;93325.91;;;6.69;86.81
3968;BME280;9221;42.646;23.380;2023-04-04T07:57:58;93307.50;;;6.44;86.38
3968;BME280;9221;42.646;23.380;2023-04-04T08:00:24;93292.91;;;6.41;86.08
3968;BME280;9221;42.646;23.380;2023-04-04T08:02:52;93273.63;;;6.16;86.37
3968;BME280;9221;42.646;23.380;2023-04-04T08:05:18;93307.78;;;6.06;86.67
3968;BME280;9221;42.646;23.380;2023-04-04T08:07:43;93355.72;;;6.33;87.31
3968;BME280;9221;42.646;23.380;2023-04-04T08:10:08;93312.56;;;6.11;87.91
3968;BME280;9221;42.646;23.380;2023-04-04T08:12:34;93350.31;;;6.35;87.85
3968;BME280;9221;42.646;23.380;2023-04-04T08:15:00;93366.31;;;6.05;87.87
3968;BME280;9221;42.646;23.380;2023-04-04T08:17:26;93340.47;;;6.02;88.44
3968;BME280;9221;42.646;23.380;2023-04-04T08:19:52;93330.66;;;5.60;88.58
3968;BME280;9221;42.646;23.380;2023-04-04T08:22:17;93394.44;;;6.03;87.67
3968;BME280;9221;42.646;23.380;2023-04-04T08:24:43;93356.53;;;5.89;87.91
3968;BME280;9221;42.646;23.380;2023-04-04T08:27:09;93322.34;;;5.47;87.93
3968;BME280;9221;42.646;23.380;2023-04-04T08:29:35;93385.47;;;5.88;88.44
3968;BME280;9221;42.646;23.380;2023-04-04T08:32:00;93423.44;;;5.92;88.33
3968;BME280;9221;42.646;23.380;2023-04-04T08:34:26;93399.84;;;5.84;88.10
3968;BME280;9221;42.646;23.380;2023-04-04T08:36:51;93343.22;;;5.38;88.05
3968;BME280;9221;42.646;23.380;2023-04-04T08:39:17;93395.06;;;5.61;87.83
3968;BME280;9221;42.646;23.380;2023-04-04T08:41:44;93406.19;;;5.45;88.64
3968;BME280;9221;42.646;23.380;2023-04-04T08:44:16;93368.75;;;4.81;88.05
3968;BME280;9221;42.646;23.380;2023-04-04T08:46:44;93393.47;;;5.50;88.79
3968;BME280;9221;42.646;23.380;2023-04-04T08:49:12;93375.91;;;5.42;89.40
3968;BME280;9221;42.646;23.380;2023-04-04T08:51:39;93324.44;;;5.07;89.07
3968;BME280;9221;42.646;23.380;2023-04-04T08:54:07;93402.38;;;5.39;89.31
3968;BME280;9221;42.646;23.380;2023-04-04T08:56:34;93336.06;;;5.04;89.13
3968;BME280;9221;42.646;23.380;2023-04-04T08:59:00;93379.06;;;5.28;90.30
3968;BME280;9221;42.646;23.380;2023-04-04T09:01:27;93404.69;;;5.42;91.13
3968;BME280;9221;42.646;23.380;2023-04-04T09:03:55;93441.28;;;5.42;91.12
3968;BME280;9221;42.646;23.380;2023-04-04T09:06:22;93407.91;;;5.36;90.73
3968;BME280;9221;42.646;23.380;2023-04-04T09:08:47;93455.44;;;5.50;91.10
3968;BME280;9221;42.646;23.380;2023-04-04T09:11:13;93438.16;;;5.57;90.96
3968;BME280;9221;42.646;23.380;2023-04-04T09:13:43;93433.06;;;5.37;90.47
3968;BME280;9221;42.646;23.380;2023-04-04T09:16:09;93355.38;;;4.94;91.45
3968;BME280;9221;42.646;23.380;2023-04-04T09:18:34;93456.38;;;5.49;90.84
3968;BME280;9221;42.646;23.380;2023-04-04T09:21:08;93418.13;;;5.30;90.47
3968;BME280;9221;42.646;23.380;2023-04-04T09:23:33;93435.53;;;5.39;90.57
3968;BME280;9221;42.646;23.380;2023-04-04T09:25:58;93440.34;;;4.88;90.26
3968;BME280;9221;42.646;23.380;2023-04-04T09:28:24;93347.47;;;4.75;90.14
3968;BME280;9221;42.646;23.380;2023-04-04T09:30:50;93437.69;;;5.25;89.57
3968;BME280;9221;42.646;23.380;2023-04-04T09:33:19;93341.00;;;4.52;89.72
3968;BME280;9221;42.646;23.380;2023-04-04T09:35:59;93461.63;;;5.49;89.87
3968;BME280;9221;42.646;23.380;2023-04-04T09:38:27;93421.06;;;5.45;89.22
3968;BME280;9221;42.646;23.380;2023-04-04T09:40:54;93368.53;;;5.20;88.46
3968;BME280;9221;42.646;23.380;2023-04-04T09:43:21;93396.97;;;5.23;87.70
3968;BME280;9221;42.646;23.380;2023-04-04T09:45:48;93463.63;;;5.55;87.86
3968;BME280;9221;42.646;23.380;2023-04-04T09:48:26;93373.69;;;5.30;88.25
3968;BME280;9221;42.646;23.380;2023-04-04T09:50:55;93467.41;;;5.70;87.10
3968;BME280;9221;42.646;23.380;2023-04-04T09:53:22;93433.78;;;5.75;86.76
3968;BME280;9221;42.646;23.380;2023-04-04T09:55:50;93410.28;;;5.48;87.50
3968;BME280;9221;42.646;23.380;2023-04-04T09:58:17;93414.78;;;5.73;86.79
3968;BME280;9221;42.646;23.380;2023-04-04T10:00:47;93410.75;;;5.79;87.01
3968;BME280;9221;42.646;23.380;2023-04-04T10:03:17;93447.28;;;5.89;86.09
3968;BME280;9221;42.646;23.380;2023-04-04T10:05:46;93483.81;;;5.63;85.61
3968;BME280;9221;42.646;23.380;2023-04-04T10:08:16;93466.47;;;5.62;85.48
3968;BME280;9221;42.646;23.380;2023-04-04T10:10:55;93450.69;;;5.53;86.66
3968;BME280;9221;42.646;23.380;2023-04-04T10:13:22;93397.84;;;5.14;86.30
3968;BME280;9221;42.646;23.380;2023-04-04T10:15:47;93451.53;;;5.54;87.26
3968;BME280;9221;42.646;23.380;2023-04-04T10:18:14;93474.56;;;5.68;87.00
3968;BME280;9221;42.646;23.380;2023-04-04T10:20:41;93473.75;;;5.68;86.76
3968;BME280;9221;42.646;23.380;2023-04-04T10:23:07;93468.84;;;5.55;85.91
3968;BME280;9221;42.646;23.380;2023-04-04T10:25:33;93467.50;;;5.51;86.82
3968;BME280;9221;42.646;23.380;2023-04-04T10:27:58;93530.00;;;5.54;86.42
3968;BME280;9221;42.646;23.380;2023-04-04T10:30:23;93441.31;;;5.15;85.63
3968;BME280;9221;42.646;23.380;2023-04-04T10:32:56;93430.53;;;5.28;86.70
3968;BME280;9221;42.646;23.380;2023-04-04T10:35:25;93475.06;;;5.36;85.53
3968;BME280;9221;42.646;23.380;2023-04-04T10:37:59;93472.84;;;5.31;85.37
3968;BME280;9221;42.646;23.380;2023-04-04T10:40:31;93487.19;;;5.27;84.85
3968;BME280;9221;42.646;23.380;2023-04-04T10:43:02;93497.88;;;5.34;85.70
3968;BME280;9221;42.646;23.380;2023-04-04T10:45:30;93478.56;;;4.89;84.77
3968;BME280;9221;42.646;23.380;2023-04-04T10:47:57;93429.03;;;4.97;84.88
3968;BME280;9221;42.646;23.380;2023-04-04T10:50:23;93474.22;;;5.35;84.55
3968;BME280;9221;42.646;23.380;2023-04-04T10:52:49;93436.25;;;4.75;83.60
3968;BME280;9221;42.646;23.380;2023-04-04T10:55:15;93457.53;;;5.18;83.64
3968;BME280;9221;42.646;23.380;2023-04-04T10:57:49;93427.97;;;4.90;82.57
3968;BME280;9221;42.646;23.380;2023-04-04T11:00:18;93348.72;;;4.44;82.87
3968;BME280;9221;42.646;23.380;2023-04-04T11:02:49;93509.94;;;5.45;83.15
3968;BME280;9221;42.646;23.380;2023-04-04T11:05:35;93444.69;;;4.97;83.24
3968;BME280;9221;42.646;23.380;2023-04-04T11:08:17;93500.91;;;5.39;83.10
3968;BME280;9221;42.646;23.380;2023-04-04T11:10:49;93452.94;;;5.02;82.69
3968;BME280;9221;42.646;23.380;2023-04-04T11:13:16;93542.38;;;5.52;82.17
3968;BME280;9221;42.646;23.380;2023-04-04T11:15:50;93511.59;;;5.46;82.83
3968;BME280;9221;42.646;23.380;2023-04-04T11:18:19;93511.88;;;5.42;82.53
3968;BME280;9221;42.646;23.380;2023-04-04T11:20:46;93521.44;;;5.52;82.22
3968;BME280;9221;42.646;23.380;2023-04-04T11:23:16;93519.13;;;5.49;81.24
3968;BME280;9221;42.646;23.380;2023-04-04T11:25:56;93453.13;;;5.19;81.80
3968;BME280;9221;42.646;23.380;2023-04-04T11:34:01;93528.69;;;5.40;82.31
3968;BME280;9221;42.646;23.380;2023-04-04T11:39:22;93545.50;;;5.37;82.71
3968;BME280;9221;42.646;23.380;2023-04-04T11:44:23;93540.53;;;5.34;82.95
3968;BME280;9221;42.646;23.380;2023-04-04T11:46:54;93532.31;;;5.29;83.13
3968;BME280;9221;42.646;23.380;2023-04-04T11:49:32;93521.47;;;5.24;83.54
3968;BME280;9221;42.646;23.380;2023-04-04T11:52:06;93560.38;;;5.27;84.62
3968;BME280;9221;42.646;23.380;2023-04-04T11:54:33;93542.47;;;5.32;84.64
3968;BME280;9221;42.646;23.380;2023-04-04T11:56:59;93589.81;;;5.19;84.78
3968;BME280;9221;42.646;23.380;2023-04-04T11:59:26;93526.38;;;4.99;85.63
3968;BME280;9221;42.646;23.380;2023-04-04T12:01:53;93523.34;;;4.94;85.56
3968;BME280;9221;42.646;23.380;2023-04-04T12:04:19;93591.69;;;4.99;86.29
3968;BME280;9221;42.646;23.380;2023-04-04T12:06:50;93531.31;;;5.02;85.83
3968;BME280;9221;42.646;23.380;2023-04-04T12:09:17;93546.72;;;4.96;86.03
3968;BME280;9221;42.646;23.380;2023-04-04T12:11:44;93579.72;;;4.97;86.74
3968;BME280;9221;42.646;23.380;2023-04-04T12:14:17;93470.97;;;4.58;86.53
3968;BME280;9221;42.646;23.380;2023-04-04T12:16:44;93534.09;;;4.91;85.74
3968;BME280;9221;42.646;23.380;2023-04-04T12:19:10;93529.44;;;4.85;85.71
3968;BME280;9221;42.646;23.380;2023-04-04T12:21:35;93552.66;;;4.88;85.40
3968;BME280;9221;42.646;23.380;2023-04-04T12:24:01;93489.69;;;4.44;85.51
3968;BME280;9221;42.646;23.380;2023-04-04T12:26:27;93524.78;;;4.79;85.63
3968;BME280;9221;42.646;23.380;2023-04-04T12:28:55;93483.63;;;4.53;84.76
3968;BME280;9221;42.646;23.380;2023-04-04T12:31:22;93563.09;;;4.88;84.79
3968;BME280;9221;42.646;23.380;2023-04-04T12:33:48;93594.44;;;4.88;85.28
3968;BME280;9221;42.646;23.380;2023-04-04T12:36:15;93527.59;;;4.48;85.97
3968;BME280;9221;42.646;23.380;2023-04-04T12:39:03;93634.75;;;4.75;86.74
3968;BME280;9221;42.646;23.380;2023-04-04T12:41:29;93555.97;;;4.90;86.70
3968;BME280;9221;42.646;23.380;2023-04-04T12:44:05;93612.75;;;4.68;87.33
3968;BME280;9221;42.646;23.380;2023-04-04T12:46:38;93580.34;;;4.61;87.04
3968;BME280;9221;42.646;23.380;2023-04-04T12:49:09;93585.97;;;4.56;87.50
3968;BME280;9221;42.646;23.380;2023-04-04T12:51:36;93537.25;;;4.37;87.75
3968;BME280;9221;42.646;23.380;2023-04-04T12:54:05;93560.59;;;4.29;88.13
3968;BME280;9221;42.646;23.380;2023-04-04T12:56:32;93527.34;;;4.12;88.56
3968;BME280;9221;42.646;23.380;2023-04-04T12:59:03;93606.06;;;4.36;89.28
3968;BME280;9221;42.646;23.380;2023-04-04T13:01:31;93555.63;;;4.36;88.74
3968;BME280;9221;42.646;23.380;2023-04-04T13:04:01;93588.06;;;4.33;88.36
3968;BME280;9221;42.646;23.380;2023-04-04T13:06:30;93529.84;;;4.03;88.94
3968;BME280;9221;42.646;23.380;2023-04-04T13:08:56;93603.72;;;4.33;88.62
3968;BME280;9221;42.646;23.380;2023-04-04T13:11:23;93572.09;;;4.17;87.46
3968;BME280;9221;42.646;23.380;2023-04-04T13:13:59;93583.66;;;4.24;87.54
3968;BME280;9221;42.646;23.380;2023-04-04T13:16:32;93525.44;;;3.84;87.95
3968;BME280;9221;42.646;23.380;2023-04-04T13:19:00;93586.00;;;4.27;88.35
3968;BME280;9221;42.646;23.380;2023-04-04T13:21:26;93536.25;;;3.80;88.05
3968;BME280;9221;42.646;23.380;2023-04-04T13:23:51;93639.94;;;4.17;88.33
3968;BME280;9221;42.646;23.380;2023-04-04T13:26:17;93592.72;;;4.20;88.24